Time;durP1;ratioP1;P1;durP2;ratioP2;P2;SDS_P1;SDS_P2;PMS_P1;PMS_P2;Temp;Humidity;BMP_temperature;BMP_pressure;BME280_temperature;BME280_humidity;BME280_pressure;Samples;Min_cycle;Max_cycle;Signal;HPM_P1;HPM_P2
2022/03/25 00:01:33;;;;;;;;;;;;;;;-144.19;100.00;78622.97;5013172;28;19937;-82
2022/03/25 00:04:00;;;;;;;;;;;;;;;-144.19;100.00;78617.06;5012724;28;19929;-82
2022/03/25 00:06:26;;;;;;;;;;;;;;;-144.19;100.00;78597.34;5012957;28;19972;-83
2022/03/25 00:08:52;;;;;;;;;;;;;;;-144.19;100.00;78650.53;5012725;28;19957;-82
2022/03/25 00:11:19;;;;;;;;;;;;;;;-144.19;100.00;78648.56;5031865;28;19925;-82
2022/03/25 00:13:45;;;;;;;;;;;;;;;-144.19;100.00;78670.22;5047052;28;19948;-83
2022/03/25 00:16:12;;;;;;;;;;;;;;;-144.19;100.00;78654.47;5032791;28;19993;-84
2022/03/25 00:18:38;;;;;;;;;;;;;;;-144.19;100.00;78674.16;5049593;28;20284;-84
2022/03/25 00:21:05;;;;;;;;;;;;;;;-144.19;100.00;78654.47;5013943;28;20020;-85
2022/03/25 00:23:31;;;;;;;;;;;;;;;-144.19;100.00;78660.38;5011694;28;19957;-84
2022/03/25 00:25:57;;;;;;;;;;;;;;;-144.19;100.00;78650.53;5013799;28;19933;-84
2022/03/25 00:28:24;;;;;;;;;;;;;;;-144.19;100.00;78687.94;5014924;28;20303;-84
2022/03/25 00:30:50;;;;;;;;;;;;;;;-144.19;100.00;78689.91;5013185;28;19989;-85
2022/03/25 00:33:17;;;;;;;;;;;;;;;-144.19;100.00;78709.63;5010838;28;19926;-83
2022/03/25 00:35:44;;;;;;;;;;;;;;;-144.19;100.00;78699.75;5030650;28;20147;-84
2022/03/25 00:38:11;;;;;;;;;;;;;;;-144.19;100.00;78723.41;5031183;28;19929;-84
2022/03/25 00:40:37;;;;;;;;;;;;;;;-144.19;100.00;78717.50;5018260;28;20008;-84
2022/03/25 00:43:06;;;;;;;;;;;;;;;-144.19;100.00;78721.44;5019194;28;20451;-84
2022/03/25 00:45:33;;;;;;;;;;;;;;;-144.19;100.00;78701.72;5031058;28;19925;-84
2022/03/25 00:47:59;;;;;;;;;;;;;;;-144.19;100.00;78697.78;5031811;28;19925;-85
2022/03/25 00:50:27;;;;;;;;;;;;;;;-144.19;100.00;78682.03;5020107;28;19925;-84
2022/03/25 00:52:53;;;;;;;;;;;;;;;-144.19;100.00;78701.72;5010120;28;19926;-85
2022/03/25 00:55:19;;;;;;;;;;;;;;;-144.19;100.00;78701.72;5011044;28;19926;-85
2022/03/25 00:57:46;;;;;;;;;;;;;;;-144.19;100.00;78689.91;5020948;28;20040;-85
2022/03/25 01:00:12;;;;;;;;;;;;;;;-144.19;100.00;78719.47;5109687;22;20334;-84
2022/03/25 01:02:45;;;;;;;;;;;;;;;-144.19;100.00;78725.38;5069393;28;19931;-84
2022/03/25 01:05:12;;;;;;;;;;;;;;;-144.19;100.00;78729.31;5069849;28;19924;-84
2022/03/25 01:07:39;;;;;;;;;;;;;;;-144.19;100.00;78737.19;5087158;28;19924;-84
2022/03/25 01:10:06;;;;;;;;;;;;;;;-144.19;100.00;78739.16;5063469;28;19940;-84
2022/03/25 01:12:33;;;;;;;;;;;;;;;-144.19;100.00;78733.25;5060661;28;19932;-84
2022/03/25 01:15:00;;;;;;;;;;;;;;;-144.19;100.00;78697.78;5052288;28;19936;-84
2022/03/25 01:17:27;;;;;;;;;;;;;;;-144.19;100.00;78676.13;5050090;28;19935;-84
2022/03/25 01:19:55;;;;;;;;;;;;;;;-144.19;100.00;78682.03;5056708;28;19936;-83
2022/03/25 01:22:25;;;;;;;;;;;;;;;-144.19;100.00;78670.22;5070400;28;19925;-85
2022/03/25 01:24:53;;;;;;;;;;;;;;;-144.19;100.00;78689.91;5085603;28;20002;-84
2022/03/25 01:27:22;;;;;;;;;;;;;;;-144.19;100.00;78713.56;5069291;28;20008;-84
2022/03/25 01:29:49;;;;;;;;;;;;;;;-144.19;100.00;78703.72;5058923;28;19948;-84
2022/03/25 01:32:16;;;;;;;;;;;;;;;-144.19;100.00;78709.63;5060695;28;19925;-85
2022/03/25 01:34:46;;;;;;;;;;;;;;;-144.19;100.00;78747.03;5057384;28;19932;-84
2022/03/25 01:37:13;;;;;;;;;;;;;;;-144.19;100.00;78756.88;5067947;28;19924;-84
2022/03/25 01:39:43;;;;;;;;;;;;;;;-144.19;100.00;78760.81;5070550;28;19925;-85
2022/03/25 01:42:13;;;;;;;;;;;;;;;-144.19;100.00;78774.59;5068287;28;19928;-84
2022/03/25 01:44:40;;;;;;;;;;;;;;;-144.19;100.00;78745.06;5068975;28;19931;-85
2022/03/25 01:47:08;;;;;;;;;;;;;;;-144.19;100.00;78752.94;5069504;28;19925;-84
2022/03/25 01:49:35;;;;;;;;;;;;;;;-144.19;100.00;78749.00;5071544;28;19982;-84
2022/03/25 01:52:03;;;;;;;;;;;;;;;-144.19;100.00;78745.06;5068710;28;19925;-84
2022/03/25 01:54:31;;;;;;;;;;;;;;;-144.19;100.00;78788.38;5065714;28;19925;-85
2022/03/25 01:57:00;;;;;;;;;;;;;;;-144.19;100.00;78780.50;5071045;28;19935;-84
2022/03/25 01:59:28;;;;;;;;;;;;;;;-144.19;100.00;78784.44;5073087;28;19932;-84
2022/03/25 02:01:58;;;;;;;;;;;;;;;-144.19;100.00;78802.19;5073723;28;19935;-83
2022/03/25 02:04:26;;;;;;;;;;;;;;;-144.19;100.00;78800.22;5074190;28;19920;-84
2022/03/25 02:06:53;;;;;;;;;;;;;;;-144.19;100.00;78800.22;5074053;28;19945;-85
2022/03/25 02:09:20;;;;;;;;;;;;;;;-144.19;100.00;78814.00;5074493;28;19924;-84
2022/03/25 02:11:49;;;;;;;;;;;;;;;-144.19;100.00;78839.59;5074953;28;19925;-84
2022/03/25 02:14:22;;;;;;;;;;;;;;;-144.19;100.00;78833.69;5072141;28;19988;-84
2022/03/25 02:16:52;;;;;;;;;;;;;;;-144.19;100.00;78843.53;5074966;28;19925;-84
2022/03/25 02:19:26;;;;;;;;;;;;;;;-144.19;100.00;78835.66;5071895;28;19933;-84
2022/03/25 02:21:56;;;;;;;;;;;;;;;-144.19;100.00;78847.47;5055190;28;19936;-83
2022/03/25 02:24:30;;;;;;;;;;;;;;;-144.19;100.00;78815.97;5073267;28;19925;-84
2022/03/25 02:27:21;;;;;;;;;;;;;;;-144.19;100.00;78819.91;5074705;28;19923;-84
2022/03/25 02:30:13;;;;;;;;;;;;;;;-144.19;100.00;78808.09;5067881;28;19931;-83
2022/03/25 02:32:45;;;;;;;;;;;;;;;-144.19;100.00;78800.22;5049574;28;20441;-84
2022/03/25 02:35:11;;;;;;;;;;;;;;;-144.19;100.00;78812.03;5054255;28;19925;-84
2022/03/25 02:37:39;;;;;;;;;;;;;;;-144.19;100.00;78758.84;5054739;28;19935;-85
2022/03/25 02:40:06;;;;;;;;;;;;;;;-144.19;100.00;78776.56;5053378;28;19940;-84
2022/03/25 02:42:33;;;;;;;;;;;;;;;-144.19;100.00;78762.78;5053936;28;19913;-85
2022/03/25 02:45:00;;;;;;;;;;;;;;;-144.19;100.00;78745.06;5053225;28;19985;-84
2022/03/25 02:47:30;;;;;;;;;;;;;;;-144.19;100.00;78752.94;5054299;28;20060;-83
2022/03/25 02:50:00;;;;;;;;;;;;;;;-144.19;100.00;78741.13;5053228;28;19925;-85
2022/03/25 02:52:34;;;;;;;;;;;;;;;-144.19;100.00;78758.84;5053575;28;19929;-85
2022/03/25 02:55:07;;;;;;;;;;;;;;;-144.19;100.00;78725.38;5052611;28;19925;-85
2022/03/25 02:57:35;;;;;;;;;;;;;;;-144.19;100.00;78723.41;5055288;28;19948;-85
2022/03/25 03:00:08;;;;;;;;;;;;;;;-144.19;100.00;78741.13;5073598;28;19929;-84
2022/03/25 03:02:36;;;;;;;;;;;;;;;-144.19;100.00;78749.00;5073685;28;19947;-85
2022/03/25 03:05:07;;;;;;;;;;;;;;;-144.19;100.00;78762.78;5073373;28;19929;-84
2022/03/25 03:07:38;;;;;;;;;;;;;;;-144.19;100.00;78800.22;5071651;28;19925;-84
2022/03/25 03:10:08;;;;;;;;;;;;;;;-144.19;100.00;78835.66;5052451;28;19952;-84
2022/03/25 03:12:35;;;;;;;;;;;;;;;-144.19;100.00;78833.69;5054122;28;19952;-83
2022/03/25 03:15:06;;;;;;;;;;;;;;;-144.19;100.00;78817.94;5054174;28;19971;-84
2022/03/25 03:17:38;;;;;;;;;;;;;;;-144.19;100.00;78821.88;5054558;28;19925;-84
2022/03/25 03:20:08;;;;;;;;;;;;;;;-144.19;100.00;78812.03;5072675;28;20227;-85
2022/03/25 03:22:37;;;;;;;;;;;;;;;-144.19;100.00;78790.38;5072694;28;19924;-84
2022/03/25 03:25:04;;;;;;;;;;;;;;;-144.19;100.00;78768.69;5071436;28;20003;-84
2022/03/25 03:27:31;;;;;;;;;;;;;;;-144.19;100.00;78796.28;5072776;28;19935;-84
2022/03/25 03:30:09;;;;;;;;;;;;;;;-144.19;100.00;78800.22;5072710;28;19919;-85
2022/03/25 03:32:55;;;;;;;;;;;;;;;-144.19;100.00;78827.78;5072516;28;19929;-85
2022/03/25 03:35:32;;;;;;;;;;;;;;;-144.19;100.00;78823.84;5073442;28;19947;-84
2022/03/25 03:37:58;;;;;;;;;;;;;;;-144.19;100.00;78831.72;5072921;28;19936;-84
2022/03/25 03:40:25;;;;;;;;;;;;;;;-144.19;100.00;78855.34;5072306;28;19946;-84
2022/03/25 03:42:56;;;;;;;;;;;;;;;-144.19;100.00;78879.00;5071744;28;20159;-84
2022/03/25 03:45:22;;;;;;;;;;;;;;;-144.19;100.00;78859.28;5067630;28;20393;-84
2022/03/25 03:47:52;;;;;;;;;;;;;;;-144.19;100.00;78851.41;5069451;28;20295;-84
2022/03/25 03:50:20;;;;;;;;;;;;;;;-144.19;100.00;78859.28;5064582;28;20001;-84
2022/03/25 03:52:48;;;;;;;;;;;;;;;-144.19;100.00;78908.53;5051205;28;19925;-84
2022/03/25 03:55:16;;;;;;;;;;;;;;;-144.19;100.00;78912.47;5051237;28;19963;-83
2022/03/25 03:57:49;;;;;;;;;;;;;;;-144.19;100.00;78902.63;5061073;28;19928;-84
2022/03/25 04:00:16;;;;;;;;;;;;;;;-144.19;100.00;78908.53;5073577;28;19929;-83
2022/03/25 04:02:46;;;;;;;;;;;;;;;-144.19;100.00;78873.09;5072856;28;19936;-84
2022/03/25 04:05:13;;;;;;;;;;;;;;;-144.19;100.00;78894.75;5072733;28;19925;-84
2022/03/25 04:07:45;;;;;;;;;;;;;;;-144.19;100.00;78896.72;5073469;28;19913;-84
2022/03/25 04:10:19;;;;;;;;;;;;;;;-144.19;100.00;78910.50;5073151;28;19925;-83
2022/03/25 04:12:49;;;;;;;;;;;;;;;-144.19;100.00;78930.19;5071927;28;19929;-84
2022/03/25 04:15:16;;;;;;;;;;;;;;;-144.19;100.00;78957.78;5073485;28;19932;-84
2022/03/25 04:17:52;;;;;;;;;;;;;;;-144.19;100.00;78934.13;5068617;28;19925;-84
2022/03/25 04:20:20;;;;;;;;;;;;;;;-144.19;100.00;78930.19;5050525;28;19925;-84
2022/03/25 04:22:54;;;;;;;;;;;;;;;-144.19;100.00;78918.38;5050820;28;19945;-84
2022/03/25 04:25:21;;;;;;;;;;;;;;;-144.19;100.00;78918.38;5053489;28;19924;-84
2022/03/25 04:27:53;;;;;;;;;;;;;;;-144.19;100.00;78957.78;5052616;28;19933;-84
2022/03/25 04:30:28;;;;;;;;;;;;;;;-144.19;100.00;78985.34;5052629;28;19932;-84
2022/03/25 04:32:56;;;;;;;;;;;;;;;-144.19;100.00;78981.41;5051279;28;19925;-84
2022/03/25 04:35:28;;;;;;;;;;;;;;;-144.19;100.00;78977.47;5053050;28;19925;-85
2022/03/25 04:37:55;;;;;;;;;;;;;;;-144.19;100.00;79016.84;5051804;28;19936;-85
2022/03/25 04:40:23;;;;;;;;;;;;;;;-144.19;100.00;79020.81;5050938;28;19999;-84
2022/03/25 04:43:19;;;;;;;;;;;;;;;-144.19;100.00;79028.69;5040256;28;19926;-85
2022/03/25 04:45:52;;;;;;;;;;;;;;;-144.19;100.00;79032.63;5052752;28;19925;-85
2022/03/25 04:48:19;;;;;;;;;;;;;;;-144.19;100.00;79016.84;5051939;28;19925;-84
2022/03/25 04:50:49;;;;;;;;;;;;;;;-144.19;100.00;79022.78;5050927;28;19933;-85
2022/03/25 04:53:18;;;;;;;;;;;;;;;-144.19;100.00;79008.97;5052188;28;20462;-84
2022/03/25 04:55:48;;;;;;;;;;;;;;;-144.19;100.00;79008.97;5051936;28;19924;-84
2022/03/25 04:58:15;;;;;;;;;;;;;;;-144.19;100.00;79016.84;5064168;28;19984;-84
2022/03/25 05:00:43;;;;;;;;;;;;;;;-144.19;100.00;79024.75;5070876;28;19925;-85
2022/03/25 05:03:13;;;;;;;;;;;;;;;-144.19;100.00;79060.19;5070711;28;19953;-84
2022/03/25 05:05:44;;;;;;;;;;;;;;;-144.19;100.00;79052.31;5086673;28;19925;-85
2022/03/25 05:08:24;;;;;;;;;;;;;;;-144.19;100.00;79054.28;5068378;28;19925;-85
2022/03/25 05:10:56;;;;;;;;;;;;;;;-144.19;100.00;79052.31;5071339;28;19931;-85
2022/03/25 05:13:27;;;;;;;;;;;;;;;-144.19;100.00;79040.50;5067295;28;19989;-85
2022/03/25 05:15:58;;;;;;;;;;;;;;;-144.19;100.00;79024.75;5065416;28;19925;-85
2022/03/25 05:18:43;;;;;;;;;;;;;;;-144.19;100.00;79024.75;5071544;28;19925;-84
2022/03/25 05:21:11;;;;;;;;;;;;;;;-144.19;100.00;79018.81;5068849;28;20398;-84
2022/03/25 05:23:40;;;;;;;;;;;;;;;-144.19;100.00;79068.06;5057678;28;19932;-84
2022/03/25 05:26:16;;;;;;;;;;;;;;;-144.19;100.00;79068.06;5054328;28;20407;-83
2022/03/25 05:28:56;;;;;;;;;;;;;;;-144.19;100.00;79056.25;5068328;28;19992;-84
2022/03/25 05:31:24;;;;;;;;;;;;;;;-144.19;100.00;79062.16;5069957;28;19932;-84
2022/03/25 05:33:51;;;;;;;;;;;;;;;-144.19;100.00;79075.94;5070799;28;20421;-85
2022/03/25 05:36:18;;;;;;;;;;;;;;;-144.19;100.00;79091.72;5069040;28;19925;-84
2022/03/25 05:39:01;;;;;;;;;;;;;;;;;;;;;
2022/03/25 05:41:34;;;;;;;;;;;;;;;-144.19;100.00;79081.84;5070123;28;19980;-84
2022/03/25 05:44:05;;;;;;;;;;;;;;;-144.19;100.00;79068.06;5068514;28;19936;-84
2022/03/25 05:46:35;;;;;;;;;;;;;;;-144.19;100.00;79052.31;5069611;28;19925;-84
2022/03/25 05:49:02;;;;;;;;;;;;;;;-144.19;100.00;79048.38;5067474;28;19925;-84
2022/03/25 05:51:32;;;;;;;;;;;;;;;-144.19;100.00;79034.59;5066391;28;20135;-84
2022/03/25 05:54:08;;;;;;;;;;;;;;;-144.19;100.00;79042.47;5065582;28;19984;-83
2022/03/25 05:56:36;;;;;;;;;;;;;;;-144.19;100.00;79044.44;5070032;28;19959;-83
2022/03/25 05:59:14;;;;;;;;;;;;;;;-144.19;100.00;79036.56;5069174;28;19925;-83
2022/03/25 06:01:42;;;;;;;;;;;;;;;-144.19;100.00;79036.56;5049894;28;19918;-84
2022/03/25 06:04:12;;;;;;;;;;;;;;;-144.19;100.00;79022.78;5049710;28;19956;-84
2022/03/25 06:06:48;;;;;;;;;;;;;;;-144.19;100.00;79022.78;5058754;28;19948;-84
2022/03/25 06:09:24;;;;;;;;;;;;;;;-144.19;100.00;79052.31;5069195;28;19925;-84
2022/03/25 06:11:55;;;;;;;;;;;;;;;-144.19;100.00;79044.44;5065998;28;19932;-84
2022/03/25 06:14:26;;;;;;;;;;;;;;;-144.19;100.00;79050.34;5067060;28;19929;-84
2022/03/25 06:16:59;;;;;;;;;;;;;;;-144.19;100.00;79044.44;5069235;28;19976;-84
2022/03/25 06:19:35;;;;;;;;;;;;;;;-144.19;100.00;79016.84;5065152;28;19927;-83
2022/03/25 06:22:04;;;;;;;;;;;;;;;-144.19;100.00;79010.94;5051011;28;19925;-84
2022/03/25 06:24:36;;;;;;;;;;;;;;;-144.19;100.00;78997.16;5050811;28;19925;-84
2022/03/25 06:27:15;;;;;;;;;;;;;;;-144.19;100.00;79001.09;5049533;28;19925;-84
2022/03/25 06:29:44;;;;;;;;;;;;;;;-144.19;100.00;78991.25;5049640;28;19926;-84
2022/03/25 06:32:14;;;;;;;;;;;;;;;-144.19;100.00;78985.34;5048806;28;20004;-85
2022/03/25 06:34:41;;;;;;;;;;;;;;;-144.19;100.00;78971.56;5061044;28;20398;-85
2022/03/25 06:37:20;;;;;;;;;;;;;;;-144.19;100.00;78932.16;5069708;28;19924;-85
2022/03/25 06:39:49;;;;;;;;;;;;;;;-144.19;100.00;78918.38;5069943;28;19935;-85
2022/03/25 06:42:16;;;;;;;;;;;;;;;-144.19;100.00;78930.19;5069996;28;19925;-85
2022/03/25 06:44:45;;;;;;;;;;;;;;;-144.19;100.00;78918.38;5067954;28;19924;-84
2022/03/25 06:47:12;;;;;;;;;;;;;;;-144.19;100.00;78912.47;5073104;28;19948;-85
2022/03/25 06:49:42;;;;;;;;;;;;;;;-144.19;100.00;78906.56;5072302;28;20242;-84
2022/03/25 06:52:10;;;;;;;;;;;;;;;-144.19;100.00;78896.72;5070248;28;19988;-84
2022/03/25 06:54:37;;;;;;;;;;;;;;;-144.19;100.00;78882.94;5069915;28;19952;-85
2022/03/25 06:57:03;;;;;;;;;;;;;;;-144.19;100.00;78871.13;5068415;28;19979;-85
2022/03/25 06:59:33;;;;;;;;;;;;;;;-144.19;100.00;78855.34;5052763;28;19925;-86
2022/03/25 07:02:00;;;;;;;;;;;;;;;-144.19;100.00;78843.53;5049557;23;19933;-84
2022/03/25 07:04:27;;;;;;;;;;;;;;;-144.19;100.00;78833.69;5034803;28;19925;-84
2022/03/25 07:06:55;;;;;;;;;;;;;;;-144.19;100.00;78823.84;5034603;28;19932;-83
2022/03/25 07:09:21;;;;;;;;;;;;;;;-144.19;100.00;78808.09;5033390;28;19944;-83
2022/03/25 07:11:48;;;;;;;;;;;;;;;-144.19;100.00;78784.44;5033835;28;20411;-82
2022/03/25 07:14:14;;;;;;;;;;;;;;;-144.19;100.00;78776.56;5033635;28;20590;-83
2022/03/25 07:16:43;;;;;;;;;;;;;;;-144.19;100.00;78758.84;5033169;28;19932;-82
2022/03/25 07:19:10;;;;;;;;;;;;;;;-144.19;100.00;78756.88;5034991;28;19933;-82
2022/03/25 07:21:37;;;;;;;;;;;;;;;-144.19;100.00;78749.00;5034034;28;20461;-83
2022/03/25 07:24:03;;;;;;;;;;;;;;;-144.19;100.00;78741.13;5032233;28;19929;-83
2022/03/25 07:26:29;;;;;;;;;;;;;;;-144.19;100.00;78737.19;5033145;28;19925;-83
2022/03/25 07:28:56;;;;;;;;;;;;;;;-144.19;100.00;78719.47;5033483;28;19932;-84
2022/03/25 07:31:22;;;;;;;;;;;;;;;-144.19;100.00;78697.78;5033170;28;19936;-83
2022/03/25 07:33:48;;;;;;;;;;;;;;;-144.19;100.00;78697.78;5037880;28;19925;-84
2022/03/25 07:36:15;;;;;;;;;;;;;;;-144.19;100.00;78687.94;5034650;28;19925;-84
2022/03/25 07:38:41;;;;;;;;;;;;;;;-144.19;100.00;78674.16;5033647;28;20380;-82
2022/03/25 07:41:07;;;;;;;;;;;;;;;-144.19;100.00;78658.41;5034524;28;19929;-85
2022/03/25 07:43:33;;;;;;;;;;;;;;;-144.19;100.00;78638.72;5043281;28;19932;-83
2022/03/25 07:46:00;;;;;;;;;;;;;;;-144.19;100.00;78626.91;5034928;28;19929;-86
2022/03/25 07:48:26;;;;;;;;;;;;;;;-144.19;100.00;78634.78;5034424;28;20008;-85
2022/03/25 07:50:52;;;;;;;;;;;;;;;-144.19;100.00;78599.31;5033717;28;19929;-85
2022/03/25 07:53:19;;;;;;;;;;;;;;;-144.19;100.00;78613.09;5033989;28;20020;-87
2022/03/25 07:55:47;;;;;;;;;;;;;;;-144.19;100.00;78603.25;5032296;28;20627;-87
2022/03/25 07:58:19;;;;;;;;;;;;;;;-144.19;100.00;78601.28;5033700;28;19931;-85
2022/03/25 08:00:46;;;;;;;;;;;;;;;-144.19;100.00;78597.34;5031310;28;19926;-87
2022/03/25 08:03:13;;;;;;;;;;;;;;;-144.19;100.00;78585.53;5026387;28;19933;-87
2022/03/25 08:05:40;;;;;;;;;;;;;;;-144.19;100.00;78571.75;5035019;28;19929;-85
2022/03/25 08:08:06;;;;;;;;;;;;;;;-144.19;100.00;78571.75;5050473;28;19925;-84
2022/03/25 08:10:34;;;;;;;;;;;;;;;-144.19;100.00;78559.94;5032873;28;20397;-85
2022/03/25 08:13:01;;;;;;;;;;;;;;;-144.19;100.00;78542.22;5034966;28;19925;-86
2022/03/25 08:15:29;;;;;;;;;;;;;;;-144.19;100.00;78522.50;5038204;28;19933;-84
2022/03/25 08:17:57;;;;;;;;;;;;;;;-144.19;100.00;78504.78;5035326;28;19932;-85
2022/03/25 08:20:33;;;;;;;;;;;;;;;-144.19;100.00;78496.91;5036368;28;19947;-86
2022/03/25 08:23:00;;;;;;;;;;;;;;;-144.19;100.00;78500.84;5035908;28;19925;-86
2022/03/25 08:28:13;;;;;;;;;;;;;;;-144.19;100.00;78481.16;5036577;28;19925;-84
2022/03/25 08:30:40;;;;;;;;;;;;;;;-144.19;100.00;78475.25;5036963;28;20372;-87
2022/03/25 08:33:10;;;;;;;;;;;;;;;-144.19;100.00;78443.75;5037287;28;20483;-84
2022/03/25 08:35:37;;;;;;;;;;;;;;;-144.19;100.00;78422.09;5035673;28;19926;-84
2022/03/25 08:38:04;;;;;;;;;;;;;;;-144.19;100.00;78414.19;5036175;28;20252;-86
2022/03/25 08:40:34;;;;;;;;;;;;;;;-144.19;100.00;78388.59;5034827;28;19929;-82
2022/03/25 08:43:16;;;;;;;;;;;;;;;-144.19;100.00;78372.84;5035203;28;19925;-88
2022/03/25 08:45:43;;;;;;;;;;;;;;;-144.19;100.00;78309.84;5033654;28;19951;-83
2022/03/25 08:48:10;;;;;;;;;;;;;;;-144.19;100.00;78327.56;5034604;28;19925;-84
2022/03/25 08:50:36;;;;;;;;;;;;;;;-144.19;100.00;78319.69;5034453;28;19948;-85
2022/03/25 08:53:04;;;;;;;;;;;;;;;-144.19;100.00;78296.03;5033660;28;19925;-86
2022/03/25 08:55:31;;;;;;;;;;;;;;;-144.19;100.00;78296.03;5033825;28;19929;-86
2022/03/25 08:57:58;;;;;;;;;;;;;;;-144.19;100.00;78258.63;5033902;28;19975;-86
2022/03/25 09:00:24;;;;;;;;;;;;;;;-144.19;100.00;78254.69;5035367;28;19926;-84
2022/03/25 09:02:50;;;;;;;;;;;;;;;-144.19;100.00;78248.78;5033014;28;19925;-88
2022/03/25 09:05:17;;;;;;;;;;;;;;;-144.19;100.00;78233.03;5033792;28;20324;-85
2022/03/25 09:07:44;;;;;;;;;;;;;;;-144.19;100.00;78213.34;5036766;28;19925;-84
2022/03/25 09:10:14;;;;;;;;;;;;;;;-144.19;100.00;78175.94;5035339;28;19929;-86
2022/03/25 09:12:41;;;;;;;;;;;;;;;-144.19;100.00;78138.50;5033966;28;19925;-87
2022/03/25 09:15:08;;;;;;;;;;;;;;;-144.19;100.00;78154.25;5035007;28;19932;-87
2022/03/25 09:17:34;;;;;;;;;;;;;;;-144.19;100.00;78130.63;5036359;28;19925;-86
2022/03/25 09:20:03;;;;;;;;;;;;;;;-144.19;100.00;78116.84;5036507;28;19929;-83
2022/03/25 09:22:31;;;;;;;;;;;;;;;-144.19;100.00;78097.16;5035406;28;19951;-86
2022/03/25 09:24:57;;;;;;;;;;;;;;;-144.19;100.00;78038.09;5033738;28;20020;-86
2022/03/25 09:27:24;;;;;;;;;;;;;;;-144.19;100.00;78026.28;5033361;28;19936;-85
2022/03/25 09:29:50;;;;;;;;;;;;;;;-144.19;100.00;77996.72;5035071;28;20012;-85
2022/03/25 09:32:17;;;;;;;;;;;;;;;-144.19;100.00;78012.47;5033079;28;20413;-85
2022/03/25 09:37:36;;;;;;;;;;;;;;;-144.19;100.00;77992.78;5016622;28;19925;-83
2022/03/25 09:40:07;;;;;;;;;;;;;;;-144.19;100.00;77929.78;5013692;28;19936;-82
2022/03/25 09:42:34;;;;;;;;;;;;;;;-144.19;100.00;77955.38;5012391;28;19932;-85
2022/03/25 09:45:02;;;;;;;;;;;;;;;-144.19;100.00;77931.75;5013622;28;19938;-84
2022/03/25 09:47:30;;;;;;;;;;;;;;;-144.19;100.00;77910.09;5014506;28;19925;-86
2022/03/25 09:49:56;;;;;;;;;;;;;;;-144.19;100.00;77886.47;5012941;28;19926;-86
2022/03/25 09:52:23;;;;;;;;;;;;;;;-144.19;100.00;77894.34;5011292;28;19937;-86
2022/03/25 09:55:10;;;;;;;;;;;;;;;-144.19;100.00;77851.03;5012490;28;20410;-84
2022/03/25 09:57:37;;;;;;;;;;;;;;;-144.19;100.00;77795.88;5020792;28;19933;-83
2022/03/25 10:00:04;;;;;;;;;;;;;;;-144.19;100.00;77756.50;5046960;28;20411;-83
2022/03/25 10:02:30;;;;;;;;;;;;;;;-144.19;100.00;77717.13;5031495;28;19925;-85
2022/03/25 10:04:57;;;;;;;;;;;;;;;-144.19;100.00;77732.88;5031631;28;20203;-84
2022/03/25 10:07:25;;;;;;;;;;;;;;;-144.19;100.00;77730.91;5031669;28;19929;-86
2022/03/25 10:10:09;;;;;;;;;;;;;;;-144.19;100.00;77677.75;5031461;28;19986;-85
2022/03/25 10:12:37;;;;;;;;;;;;;;;-144.19;100.00;77646.25;5046433;28;20000;-86
2022/03/25 10:15:10;;;;;;;;;;;;;;;-144.19;99.81;77644.28;5030734;28;19940;-83
2022/03/25 10:17:56;;;;;;;;;;;;;;;-144.19;100.00;77626.56;5048738;28;19932;-85
2022/03/25 10:20:27;;;;;;;;;;;;;;;-144.19;96.82;77575.38;5050662;28;19929;-85
2022/03/25 10:22:58;;;;;;;;;;;;;;;-144.19;94.96;77508.41;5034323;28;19925;-83
2022/03/25 10:25:31;;;;;;;;;;;;;;;-144.19;86.07;77504.47;5033296;28;19925;-86
2022/03/25 10:27:57;;;;;;;;;;;;;;;-144.19;84.97;77508.41;5033786;28;19925;-83
2022/03/25 10:30:34;;;;;;;;;;;;;;;-144.19;80.21;77465.09;5033561;28;19931;-86
2022/03/25 10:33:07;;;;;;;;;;;;;;;-144.19;83.79;77374.53;5049130;28;19925;-82
2022/03/25 10:35:50;;;;;;;;;;;;;;;-144.19;74.22;77390.28;5034089;28;20033;-86
2022/03/25 10:38:17;;;;;;;;;;;;;;;-144.19;74.28;77398.16;5034647;28;19926;-85
2022/03/25 10:40:53;;;;;;;;;;;;;;;-144.19;69.41;77339.09;5034696;28;19929;-85
2022/03/25 10:43:20;;;;;;;;;;;;;;;-144.19;71.28;77224.91;5034136;28;20516;-83
2022/03/25 10:45:47;;;;;;;;;;;;;;;-144.19;68.04;77191.44;5033732;28;19932;-82
2022/03/25 10:48:21;;;;;;;;;;;;;;;-144.19;64.05;77161.91;5033308;28;19935;-83
2022/03/25 10:50:54;;;;;;;;;;;;;;;-144.19;62.21;77059.53;5033140;28;19925;-84
2022/03/25 10:53:21;;;;;;;;;;;;;;;-144.19;61.63;77020.16;5033663;28;19925;-84
2022/03/25 10:55:52;;;;;;;;;;;;;;;-144.19;61.00;77035.91;5033162;28;19929;-86
2022/03/25 10:58:18;;;;;;;;;;;;;;;-144.19;62.85;77047.72;5033441;28;19925;-84
2022/03/25 11:00:44;;;;;;;;;;;;;;;-144.19;60.56;76998.50;5034085;28;19925;-84
2022/03/25 11:03:14;;;;;;;;;;;;;;;-144.19;58.65;76909.94;5033830;28;19925;-84
2022/03/25 11:05:42;;;;;;;;;;;;;;;-144.19;49.95;76957.19;5041847;28;19963;-85
2022/03/25 11:08:09;;;;;;;;;;;;;;;-144.19;50.77;76823.31;5054362;28;20406;-86
2022/03/25 11:10:36;;;;;;;;;;;;;;;-144.19;47.10;76815.44;5054745;28;19931;-87
2022/03/25 11:13:03;;;;;;;;;;;;;;;-144.19;48.91;76819.38;5052138;28;19924;-84
2022/03/25 11:15:31;;;;;;;;;;;;;;;-144.19;43.66;76921.75;5043566;28;20383;-86
2022/03/25 11:17:58;;;;;;;;;;;;;;;-144.19;47.74;76959.13;5035155;28;20417;-86
2022/03/25 11:20:26;;;;;;;;;;;;;;;-144.19;49.97;76791.81;5034918;28;19932;-87
2022/03/25 11:23:16;;;;;;;;;;;;;;;-144.19;41.43;76791.81;5034639;28;19944;-85
2022/03/25 11:25:49;;;;;;;;;;;;;;;-144.19;43.49;76882.38;5045114;28;19929;-87
2022/03/25 11:28:17;;;;;;;;;;;;;;;-144.19;46.45;76909.94;5054225;28;19924;-86
2022/03/25 11:30:43;;;;;;;;;;;;;;;-144.19;41.87;76919.78;5052082;28;19929;-87
2022/03/25 11:33:10;;;;;;;;;;;;;;;-144.19;45.22;76787.88;5052614;28;19925;-86
2022/03/25 11:35:38;;;;;;;;;;;;;;;-144.19;40.06;76783.94;5044686;28;20409;-88
2022/03/25 11:38:10;;;;;;;;;;;;;;;-144.19;39.74;76750.47;5038603;28;19932;-90
2022/03/25 11:40:42;;;;;;;;;;;;;;;-144.19;38.76;76695.34;5034464;28;20248;-90
2022/03/25 11:43:34;;;;;;;;;;;;;;;-144.19;38.05;76677.66;5033741;28;19925;-87
2022/03/25 11:46:02;;;;;;;;;;;;;;;-144.19;38.33;76665.84;5034055;28;20295;-89
2022/03/25 11:48:29;;;;;;;;;;;;;;;-144.19;37.98;76606.78;5034418;28;19925;-88
2022/03/25 11:50:55;;;;;;;;;;;;;;;-144.19;37.72;76669.78;5049993;28;20383;-89
2022/03/25 11:53:22;;;;;;;;;;;;;;;-144.19;38.97;76724.88;5042359;28;20501;-88
2022/03/25 11:55:59;;;;;;;;;;;;;;;-144.19;39.16;76657.97;5035390;28;20380;-87
2022/03/25 11:58:26;;;;;;;;;;;;;;;-144.19;39.47;76575.28;5021452;28;19972;-86
2022/03/25 12:01:08;;;;;;;;;;;;;;;-144.19;40.30;76484.75;5014149;28;19987;-85
2022/03/25 12:03:39;;;;;;;;;;;;;;;-144.19;39.04;76591.03;5034151;28;19944;-88
2022/03/25 12:06:06;;;;;;;;;;;;;;;-144.19;41.36;76620.56;5052617;28;20449;-88
2022/03/25 12:08:35;;;;;;;;;;;;;;;-144.19;40.00;76531.97;5053171;28;19925;-84
2022/03/25 12:11:06;;;;;;;;;;;;;;;-144.19;39.49;76669.78;5053745;28;19925;-86
2022/03/25 12:13:51;;;;;;;;;;;;;;;-144.19;40.16;76728.81;5042623;28;20012;-86
2022/03/25 12:16:36;;;;;;;;;;;;;;;-144.19;41.68;76726.84;5032107;28;19929;-85
2022/03/25 12:19:04;;;;;;;;;;;;;;;-144.19;39.82;76858.75;5032704;28;19980;-84
2022/03/25 12:21:30;;;;;;;;;;;;;;;-144.19;38.88;76787.88;5034130;28;19925;-85
2022/03/25 12:23:58;;;;;;;;;;;;;;;-144.19;39.47;76797.72;5034976;28;19925;-88
2022/03/25 12:26:37;;;;;;;;;;;;;;;-144.19;39.49;76827.25;5034381;28;19929;-86
2022/03/25 12:29:07;;;;;;;;;;;;;;;-144.19;41.85;76892.22;5032590;28;19929;-84
2022/03/25 12:31:34;;;;;;;;;;;;;;;-144.19;39.29;76726.84;5033420;28;19936;-85
2022/03/25 12:34:02;;;;;;;;;;;;;;;-144.19;39.79;76829.22;5044574;28;20010;-84
2022/03/25 12:36:35;;;;;;;;;;;;;;;-144.19;40.91;76850.88;5033658;28;19925;-86
2022/03/25 12:39:02;;;;;;;;;;;;;;;-144.19;40.70;76870.56;5033184;28;19932;-84